sensor_id;sensor_type;location;lat;lon;timestamp;temperature;humidity
71082;SHT31;58740;50.672;18.690;2022-08-16T00:00:26;21.23;71.45
71082;SHT31;58740;50.672;18.690;2022-08-16T00:03:08;21.20;71.52
71082;SHT31;58740;50.672;18.690;2022-08-16T00:05:39;21.18;71.54
71082;SHT31;58740;50.672;18.690;2022-08-16T00:08:15;21.17;71.64
71082;SHT31;58740;50.672;18.690;2022-08-16T00:11:07;21.09;71.70
71082;SHT31;58740;50.672;18.690;2022-08-16T00:13:43;21.04;71.82
71082;SHT31;58740;50.672;18.690;2022-08-16T00:16:25;21.01;71.85
71082;SHT31;58740;50.672;18.690;2022-08-16T00:19:22;20.97;71.96
71082;SHT31;58740;50.672;18.690;2022-08-16T00:22:08;20.94;72.11
71082;SHT31;58740;50.672;18.690;2022-08-16T00:24:42;20.91;72.07
71082;SHT31;58740;50.672;18.690;2022-08-16T00:27:13;20.87;72.19
71082;SHT31;58740;50.672;18.690;2022-08-16T00:29:43;20.84;72.34
71082;SHT31;58740;50.672;18.690;2022-08-16T00:32:12;20.82;72.39
71082;SHT31;58740;50.672;18.690;2022-08-16T00:34:44;20.80;72.40
71082;SHT31;58740;50.672;18.690;2022-08-16T00:37:21;20.78;72.41
71082;SHT31;58740;50.672;18.690;2022-08-16T00:40:13;20.73;72.54
71082;SHT31;58740;50.672;18.690;2022-08-16T00:43:02;20.69;72.65
71082;SHT31;58740;50.672;18.690;2022-08-16T00:49:06;20.65;72.84
71082;SHT31;58740;50.672;18.690;2022-08-16T00:51:46;20.66;72.92
71082;SHT31;58740;50.672;18.690;2022-08-16T00:54:22;20.66;72.98
71082;SHT31;58740;50.672;18.690;2022-08-16T00:56:55;20.67;73.01
71082;SHT31;58740;50.672;18.690;2022-08-16T00:59:28;20.68;73.11
71082;SHT31;58740;50.672;18.690;2022-08-16T01:02:02;20.65;73.14
71082;SHT31;58740;50.672;18.690;2022-08-16T01:04:54;20.61;73.20
71082;SHT31;58740;50.672;18.690;2022-08-16T01:07:39;20.57;73.35
71082;SHT31;58740;50.672;18.690;2022-08-16T01:10:23;20.55;73.39
71082;SHT31;58740;50.672;18.690;2022-08-16T01:13:02;20.51;73.36
71082;SHT31;58740;50.672;18.690;2022-08-16T01:15:45;20.48;73.45
71082;SHT31;58740;50.672;18.690;2022-08-16T01:18:21;20.44;73.48
71082;SHT31;58740;50.672;18.690;2022-08-16T01:24:15;20.35;73.59
71082;SHT31;58740;50.672;18.690;2022-08-16T01:27:12;20.32;73.73
71082;SHT31;58740;50.672;18.690;2022-08-16T01:29:50;20.29;73.79
71082;SHT31;58740;50.672;18.690;2022-08-16T01:32:30;20.27;73.87
71082;SHT31;58740;50.672;18.690;2022-08-16T01:35:17;20.24;73.74
71082;SHT31;58740;50.672;18.690;2022-08-16T01:37:53;20.25;74.03
71082;SHT31;58740;50.672;18.690;2022-08-16T01:40:25;20.29;73.95
71082;SHT31;58740;50.672;18.690;2022-08-16T01:42:57;20.28;73.87
71082;SHT31;58740;50.672;18.690;2022-08-16T01:45:25;20.25;73.97
71082;SHT31;58740;50.672;18.690;2022-08-16T01:48:07;20.23;74.05
71082;SHT31;58740;50.672;18.690;2022-08-16T01:50:46;20.22;74.03
71082;SHT31;58740;50.672;18.690;2022-08-16T01:53:38;20.21;74.00
71082;SHT31;58740;50.672;18.690;2022-08-16T01:56:08;20.20;73.91
71082;SHT31;58740;50.672;18.690;2022-08-16T01:58:52;20.18;73.67
71082;SHT31;58740;50.672;18.690;2022-08-16T02:01:24;20.11;73.75
71082;SHT31;58740;50.672;18.690;2022-08-16T02:03:55;20.05;73.79
71082;SHT31;58740;50.672;18.690;2022-08-16T02:06:37;19.98;73.70
71082;SHT31;58740;50.672;18.690;2022-08-16T02:09:14;19.92;73.78
71082;SHT31;58740;50.672;18.690;2022-08-16T02:11:45;19.89;73.87
71082;SHT31;58740;50.672;18.690;2022-08-16T02:14:21;19.89;73.98
71082;SHT31;58740;50.672;18.690;2022-08-16T02:16:55;19.88;73.99
71082;SHT31;58740;50.672;18.690;2022-08-16T02:19:26;19.87;74.09
71082;SHT31;58740;50.672;18.690;2022-08-16T02:22:18;19.83;74.12
71082;SHT31;58740;50.672;18.690;2022-08-16T02:25:06;19.79;74.13
71082;SHT31;58740;50.672;18.690;2022-08-16T02:27:42;19.75;74.11
71082;SHT31;58740;50.672;18.690;2022-08-16T02:30:19;19.71;74.23
71082;SHT31;58740;50.672;18.690;2022-08-16T02:33:10;19.68;74.21
71082;SHT31;58740;50.672;18.690;2022-08-16T02:35:41;19.65;74.26
71082;SHT31;58740;50.672;18.690;2022-08-16T02:38:22;19.61;74.24
71082;SHT31;58740;50.672;18.690;2022-08-16T02:40:50;19.56;74.29
71082;SHT31;58740;50.672;18.690;2022-08-16T02:43:25;19.54;74.54
71082;SHT31;58740;50.672;18.690;2022-08-16T02:45:59;19.52;74.60
71082;SHT31;58740;50.672;18.690;2022-08-16T02:48:33;19.51;74.59
71082;SHT31;58740;50.672;18.690;2022-08-16T02:51:05;19.50;74.67
71082;SHT31;58740;50.672;18.690;2022-08-16T02:53:39;19.50;74.83
71082;SHT31;58740;50.672;18.690;2022-08-16T02:56:12;19.51;74.83
71082;SHT31;58740;50.672;18.690;2022-08-16T02:58:43;19.53;74.79
71082;SHT31;58740;50.672;18.690;2022-08-16T03:01:13;19.55;74.81
71082;SHT31;58740;50.672;18.690;2022-08-16T03:04:00;19.55;74.59
71082;SHT31;58740;50.672;18.690;2022-08-16T03:06:51;19.51;74.50
71082;SHT31;58740;50.672;18.690;2022-08-16T03:09:23;19.49;74.57
71082;SHT31;58740;50.672;18.690;2022-08-16T03:11:56;19.45;74.60
71082;SHT31;58740;50.672;18.690;2022-08-16T03:14:24;19.40;74.69
71082;SHT31;58740;50.672;18.690;2022-08-16T03:16:52;19.35;74.68
71082;SHT31;58740;50.672;18.690;2022-08-16T03:19:27;19.30;74.87
71082;SHT31;58740;50.672;18.690;2022-08-16T03:22:19;19.27;75.00
71082;SHT31;58740;50.672;18.690;2022-08-16T03:24:59;19.29;74.92
71082;SHT31;58740;50.672;18.690;2022-08-16T03:27:35;19.31;74.98
71082;SHT31;58740;50.672;18.690;2022-08-16T03:30:12;19.32;75.03
71082;SHT31;58740;50.672;18.690;2022-08-16T03:32:52;19.32;74.99
71082;SHT31;58740;50.672;18.690;2022-08-16T03:35:22;19.31;75.08
71082;SHT31;58740;50.672;18.690;2022-08-16T03:38:00;19.28;75.02
71082;SHT31;58740;50.672;18.690;2022-08-16T03:40:52;19.24;74.99
71082;SHT31;58740;50.672;18.690;2022-08-16T03:43:22;19.24;75.30
71082;SHT31;58740;50.672;18.690;2022-08-16T03:46:13;19.24;75.36
71082;SHT31;58740;50.672;18.690;2022-08-16T03:49:02;19.26;75.41
71082;SHT31;58740;50.672;18.690;2022-08-16T03:51:30;19.27;75.26
71082;SHT31;58740;50.672;18.690;2022-08-16T03:53:59;19.28;75.27
71082;SHT31;58740;50.672;18.690;2022-08-16T03:56:28;19.25;75.25
71082;SHT31;58740;50.672;18.690;2022-08-16T03:58:57;19.23;75.29
71082;SHT31;58740;50.672;18.690;2022-08-16T04:01:26;19.19;75.28
71082;SHT31;58740;50.672;18.690;2022-08-16T04:03:56;19.19;75.31
71082;SHT31;58740;50.672;18.690;2022-08-16T04:06:23;19.19;75.36
71082;SHT31;58740;50.672;18.690;2022-08-16T04:08:52;19.19;75.44
71082;SHT31;58740;50.672;18.690;2022-08-16T04:11:20;19.19;75.42
71082;SHT31;58740;50.672;18.690;2022-08-16T04:13:51;19.20;75.46
71082;SHT31;58740;50.672;18.690;2022-08-16T04:16:33;19.20;75.46
71082;SHT31;58740;50.672;18.690;2022-08-16T04:19:01;19.20;75.51
71082;SHT31;58740;50.672;18.690;2022-08-16T04:21:34;19.21;75.61
71082;SHT31;58740;50.672;18.690;2022-08-16T04:24:13;19.25;75.76
71082;SHT31;58740;50.672;18.690;2022-08-16T04:26:43;19.30;75.70
71082;SHT31;58740;50.672;18.690;2022-08-16T04:29:13;19.32;75.77
71082;SHT31;58740;50.672;18.690;2022-08-16T04:31:51;19.37;75.72
71082;SHT31;58740;50.672;18.690;2022-08-16T04:34:28;19.43;75.69
71082;SHT31;58740;50.672;18.690;2022-08-16T04:37:04;19.50;75.64
71082;SHT31;58740;50.672;18.690;2022-08-16T04:39:34;19.53;75.63
71082;SHT31;58740;50.672;18.690;2022-08-16T04:42:22;19.55;75.76
71082;SHT31;58740;50.672;18.690;2022-08-16T04:44:52;19.57;75.79
71082;SHT31;58740;50.672;18.690;2022-08-16T04:47:23;19.61;75.69
71082;SHT31;58740;50.672;18.690;2022-08-16T04:50:03;19.67;75.49
71082;SHT31;58740;50.672;18.690;2022-08-16T04:52:45;19.74;75.46
71082;SHT31;58740;50.672;18.690;2022-08-16T04:55:17;19.80;75.48
71082;SHT31;58740;50.672;18.690;2022-08-16T04:58:03;19.87;75.45
71082;SHT31;58740;50.672;18.690;2022-08-16T05:00:51;19.93;75.42
71082;SHT31;58740;50.672;18.690;2022-08-16T05:03:19;19.98;75.44
71082;SHT31;58740;50.672;18.690;2022-08-16T05:05:48;20.04;75.41
71082;SHT31;58740;50.672;18.690;2022-08-16T05:08:31;20.10;75.55
71082;SHT31;58740;50.672;18.690;2022-08-16T05:11:01;20.18;75.43
71082;SHT31;58740;50.672;18.690;2022-08-16T05:13:36;20.26;75.41
71082;SHT31;58740;50.672;18.690;2022-08-16T05:16:10;20.35;75.33
71082;SHT31;58740;50.672;18.690;2022-08-16T05:18:47;20.44;75.39
71082;SHT31;58740;50.672;18.690;2022-08-16T05:21:17;20.53;75.20
71082;SHT31;58740;50.672;18.690;2022-08-16T05:23:48;20.60;75.14
71082;SHT31;58740;50.672;18.690;2022-08-16T05:26:26;20.68;75.16
71082;SHT31;58740;50.672;18.690;2022-08-16T05:28:56;20.76;75.07
71082;SHT31;58740;50.672;18.690;2022-08-16T05:31:30;20.85;74.98
71082;SHT31;58740;50.672;18.690;2022-08-16T05:34:01;20.93;74.72
71082;SHT31;58740;50.672;18.690;2022-08-16T05:36:31;21.02;74.58
71082;SHT31;58740;50.672;18.690;2022-08-16T05:39:05;21.12;74.39
71082;SHT31;58740;50.672;18.690;2022-08-16T05:41:36;21.19;74.31
71082;SHT31;58740;50.672;18.690;2022-08-16T05:44:15;21.29;74.03
71082;SHT31;58740;50.672;18.690;2022-08-16T05:46:51;21.38;73.81
71082;SHT31;58740;50.672;18.690;2022-08-16T05:49:23;21.51;73.69
71082;SHT31;58740;50.672;18.690;2022-08-16T05:52:06;21.66;73.33
71082;SHT31;58740;50.672;18.690;2022-08-16T05:54:40;21.79;73.02
71082;SHT31;58740;50.672;18.690;2022-08-16T05:57:15;21.93;72.83
71082;SHT31;58740;50.672;18.690;2022-08-16T05:59:45;22.06;72.97
71082;SHT31;58740;50.672;18.690;2022-08-16T06:02:17;22.17;72.89
71082;SHT31;58740;50.672;18.690;2022-08-16T06:04:55;22.32;72.77
71082;SHT31;58740;50.672;18.690;2022-08-16T06:07:23;22.47;72.41
71082;SHT31;58740;50.672;18.690;2022-08-16T06:09:53;22.62;71.55
71082;SHT31;58740;50.672;18.690;2022-08-16T06:12:26;22.72;71.08
71082;SHT31;58740;50.672;18.690;2022-08-16T06:14:57;22.83;71.23
71082;SHT31;58740;50.672;18.690;2022-08-16T06:17:33;22.97;71.38
71082;SHT31;58740;50.672;18.690;2022-08-16T06:20:12;23.09;70.90
71082;SHT31;58740;50.672;18.690;2022-08-16T06:22:52;23.22;70.66
71082;SHT31;58740;50.672;18.690;2022-08-16T06:25:31;23.33;70.33
71082;SHT31;58740;50.672;18.690;2022-08-16T06:28:06;23.41;69.87
71082;SHT31;58740;50.672;18.690;2022-08-16T06:30:57;23.48;70.00
71082;SHT31;58740;50.672;18.690;2022-08-16T06:33:28;23.55;69.54
71082;SHT31;58740;50.672;18.690;2022-08-16T06:36:08;23.61;69.34
71082;SHT31;58740;50.672;18.690;2022-08-16T06:38:41;23.62;69.11
71082;SHT31;58740;50.672;18.690;2022-08-16T06:41:22;23.66;69.27
71082;SHT31;58740;50.672;18.690;2022-08-16T06:43:54;23.77;69.11
71082;SHT31;58740;50.672;18.690;2022-08-16T06:46:25;23.89;69.34
71082;SHT31;58740;50.672;18.690;2022-08-16T06:49:07;24.04;68.83
71082;SHT31;58740;50.672;18.690;2022-08-16T06:51:38;24.19;68.98
71082;SHT31;58740;50.672;18.690;2022-08-16T06:54:15;24.33;68.66
71082;SHT31;58740;50.672;18.690;2022-08-16T06:56:43;24.43;68.29
71082;SHT31;58740;50.672;18.690;2022-08-16T06:59:11;24.52;67.98
71082;SHT31;58740;50.672;18.690;2022-08-16T07:01:39;24.62;67.73
71082;SHT31;58740;50.672;18.690;2022-08-16T07:04:13;24.73;67.22
71082;SHT31;58740;50.672;18.690;2022-08-16T07:07:00;24.82;66.60
71082;SHT31;58740;50.672;18.690;2022-08-16T07:09:29;24.86;66.47
71082;SHT31;58740;50.672;18.690;2022-08-16T07:11:58;24.93;66.32
71082;SHT31;58740;50.672;18.690;2022-08-16T07:14:30;25.03;66.56
71082;SHT31;58740;50.672;18.690;2022-08-16T07:16:59;25.15;65.59
71082;SHT31;58740;50.672;18.690;2022-08-16T07:19:28;25.21;64.98
71082;SHT31;58740;50.672;18.690;2022-08-16T07:22:19;25.27;64.93
71082;SHT31;58740;50.672;18.690;2022-08-16T07:25:11;25.36;64.49
71082;SHT31;58740;50.672;18.690;2022-08-16T07:27:42;25.42;64.44
71082;SHT31;58740;50.672;18.690;2022-08-16T07:30:11;25.48;64.20
71082;SHT31;58740;50.672;18.690;2022-08-16T07:33:01;25.53;63.40
71082;SHT31;58740;50.672;18.690;2022-08-16T07:35:33;25.56;63.25
71082;SHT31;58740;50.672;18.690;2022-08-16T07:38:02;25.59;62.83
71082;SHT31;58740;50.672;18.690;2022-08-16T07:40:33;25.62;62.86
71082;SHT31;58740;50.672;18.690;2022-08-16T07:43:22;25.65;62.70
71082;SHT31;58740;50.672;18.690;2022-08-16T07:45:55;25.69;62.35
71082;SHT31;58740;50.672;18.690;2022-08-16T07:48:23;25.71;63.08
71082;SHT31;58740;50.672;18.690;2022-08-16T07:50:51;25.75;62.66
71082;SHT31;58740;50.672;18.690;2022-08-16T07:53:28;25.78;62.27
71082;SHT31;58740;50.672;18.690;2022-08-16T07:55:58;25.82;61.91
71082;SHT31;58740;50.672;18.690;2022-08-16T07:58:27;25.84;61.74
71082;SHT31;58740;50.672;18.690;2022-08-16T08:01:01;25.84;61.58
71082;SHT31;58740;50.672;18.690;2022-08-16T08:03:39;25.88;61.61
71082;SHT31;58740;50.672;18.690;2022-08-16T08:06:20;25.93;61.17
71082;SHT31;58740;50.672;18.690;2022-08-16T08:08:54;25.97;61.50
71082;SHT31;58740;50.672;18.690;2022-08-16T08:11:27;26.03;61.38
71082;SHT31;58740;50.672;18.690;2022-08-16T08:13:56;26.09;61.29
71082;SHT31;58740;50.672;18.690;2022-08-16T08:16:31;26.14;61.16
71082;SHT31;58740;50.672;18.690;2022-08-16T08:19:02;26.18;60.57
71082;SHT31;58740;50.672;18.690;2022-08-16T08:21:31;26.23;60.51
71082;SHT31;58740;50.672;18.690;2022-08-16T08:24:21;26.27;59.95
71082;SHT31;58740;50.672;18.690;2022-08-16T08:26:59;26.33;60.03
71082;SHT31;58740;50.672;18.690;2022-08-16T08:29:31;26.38;60.28
71082;SHT31;58740;50.672;18.690;2022-08-16T08:32:06;26.43;60.18
71082;SHT31;58740;50.672;18.690;2022-08-16T08:34:56;26.48;60.22
71082;SHT31;58740;50.672;18.690;2022-08-16T08:37:30;26.51;59.39
71082;SHT31;58740;50.672;18.690;2022-08-16T08:40:22;26.57;59.40
71082;SHT31;58740;50.672;18.690;2022-08-16T08:42:54;26.60;59.31
71082;SHT31;58740;50.672;18.690;2022-08-16T08:45:39;26.63;58.64
71082;SHT31;58740;50.672;18.690;2022-08-16T08:48:19;26.67;57.96
71082;SHT31;58740;50.672;18.690;2022-08-16T08:51:02;26.67;57.54
71082;SHT31;58740;50.672;18.690;2022-08-16T08:53:36;26.69;57.58
71082;SHT31;58740;50.672;18.690;2022-08-16T08:56:04;26.75;58.02
71082;SHT31;58740;50.672;18.690;2022-08-16T08:58:50;26.80;58.53
71082;SHT31;58740;50.672;18.690;2022-08-16T09:01:22;26.85;57.42
71082;SHT31;58740;50.672;18.690;2022-08-16T09:04:03;26.87;56.70
71082;SHT31;58740;50.672;18.690;2022-08-16T09:06:33;26.86;55.54
71082;SHT31;58740;50.672;18.690;2022-08-16T09:09:09;26.85;56.61
71082;SHT31;58740;50.672;18.690;2022-08-16T09:11:44;26.85;55.68
71082;SHT31;58740;50.672;18.690;2022-08-16T09:14:24;26.84;55.84
71082;SHT31;58740;50.672;18.690;2022-08-16T09:16:52;26.87;56.02
71082;SHT31;58740;50.672;18.690;2022-08-16T09:19:32;26.92;56.30
71082;SHT31;58740;50.672;18.690;2022-08-16T09:22:10;26.97;56.42
71082;SHT31;58740;50.672;18.690;2022-08-16T09:24:47;27.01;56.55
71082;SHT31;58740;50.672;18.690;2022-08-16T09:27:20;27.05;56.25
71082;SHT31;58740;50.672;18.690;2022-08-16T09:29:49;27.05;55.75
71082;SHT31;58740;50.672;18.690;2022-08-16T09:32:27;27.03;56.09
71082;SHT31;58740;50.672;18.690;2022-08-16T09:34:58;27.05;55.88
71082;SHT31;58740;50.672;18.690;2022-08-16T09:37:28;27.08;56.70
71082;SHT31;58740;50.672;18.690;2022-08-16T09:40:04;27.12;56.76
71082;SHT31;58740;50.672;18.690;2022-08-16T09:42:55;27.17;56.36
71082;SHT31;58740;50.672;18.690;2022-08-16T09:45:26;27.20;56.35
71082;SHT31;58740;50.672;18.690;2022-08-16T09:47:55;27.23;56.59
71082;SHT31;58740;50.672;18.690;2022-08-16T09:50:25;27.27;56.15
71082;SHT31;58740;50.672;18.690;2022-08-16T09:53:06;27.29;56.04
71082;SHT31;58740;50.672;18.690;2022-08-16T09:55:45;27.30;55.01
71082;SHT31;58740;50.672;18.690;2022-08-16T09:58:24;27.33;55.07
71082;SHT31;58740;50.672;18.690;2022-08-16T10:01:08;27.33;54.70
71082;SHT31;58740;50.672;18.690;2022-08-16T10:03:38;27.35;55.18
71082;SHT31;58740;50.672;18.690;2022-08-16T10:06:26;27.37;55.25
71082;SHT31;58740;50.672;18.690;2022-08-16T10:09:01;27.39;55.12
71082;SHT31;58740;50.672;18.690;2022-08-16T10:11:35;27.42;55.81
71082;SHT31;58740;50.672;18.690;2022-08-16T10:14:38;27.47;55.89
71082;SHT31;58740;50.672;18.690;2022-08-16T10:17:12;27.49;55.42
71082;SHT31;58740;50.672;18.690;2022-08-16T10:19:41;27.54;56.14
71082;SHT31;58740;50.672;18.690;2022-08-16T10:22:09;27.57;55.63
71082;SHT31;58740;50.672;18.690;2022-08-16T10:24:39;27.56;54.27
71082;SHT31;58740;50.672;18.690;2022-08-16T10:27:27;27.56;54.56
71082;SHT31;58740;50.672;18.690;2022-08-16T10:30:15;27.56;54.67
71082;SHT31;58740;50.672;18.690;2022-08-16T10:32:54;27.60;54.71
71082;SHT31;58740;50.672;18.690;2022-08-16T10:35:24;27.62;54.95
71082;SHT31;58740;50.672;18.690;2022-08-16T10:37:59;27.66;55.53
71082;SHT31;58740;50.672;18.690;2022-08-16T10:40:27;27.72;55.02
71082;SHT31;58740;50.672;18.690;2022-08-16T10:42:57;27.75;54.44
71082;SHT31;58740;50.672;18.690;2022-08-16T10:45:29;27.80;54.38
71082;SHT31;58740;50.672;18.690;2022-08-16T10:48:04;27.84;54.21
71082;SHT31;58740;50.672;18.690;2022-08-16T10:50:54;27.87;54.26
71082;SHT31;58740;50.672;18.690;2022-08-16T10:53:27;27.86;53.99
71082;SHT31;58740;50.672;18.690;2022-08-16T10:56:00;27.81;53.58
71082;SHT31;58740;50.672;18.690;2022-08-16T10:58:51;27.73;53.99
71082;SHT31;58740;50.672;18.690;2022-08-16T11:01:43;27.66;54.06
71082;SHT31;58740;50.672;18.690;2022-08-16T11:04:31;27.62;54.55
71082;SHT31;58740;50.672;18.690;2022-08-16T11:07:19;27.64;53.80
71082;SHT31;58740;50.672;18.690;2022-08-16T11:10:08;27.68;52.80
71082;SHT31;58740;50.672;18.690;2022-08-16T11:12:57;27.74;52.22
71082;SHT31;58740;50.672;18.690;2022-08-16T11:15:45;27.79;52.44
71082;SHT31;58740;50.672;18.690;2022-08-16T11:18:22;27.85;52.00
71082;SHT31;58740;50.672;18.690;2022-08-16T11:21:10;27.92;52.04
71082;SHT31;58740;50.672;18.690;2022-08-16T11:23:56;28.00;51.91
71082;SHT31;58740;50.672;18.690;2022-08-16T11:26:26;28.07;52.19
71082;SHT31;58740;50.672;18.690;2022-08-16T11:28:54;28.12;51.56
71082;SHT31;58740;50.672;18.690;2022-08-16T11:31:41;28.20;50.97
71082;SHT31;58740;50.672;18.690;2022-08-16T11:34:20;28.27;51.14
71082;SHT31;58740;50.672;18.690;2022-08-16T11:36:48;28.36;51.33
71082;SHT31;58740;50.672;18.690;2022-08-16T11:39:26;28.45;51.66
71082;SHT31;58740;50.672;18.690;2022-08-16T11:41:56;28.53;51.55
71082;SHT31;58740;50.672;18.690;2022-08-16T11:44:24;28.63;50.80
71082;SHT31;58740;50.672;18.690;2022-08-16T11:47:12;28.68;50.59
71082;SHT31;58740;50.672;18.690;2022-08-16T11:49:39;28.72;51.57
71082;SHT31;58740;50.672;18.690;2022-08-16T11:52:07;28.80;51.51
71082;SHT31;58740;50.672;18.690;2022-08-16T11:54:35;28.84;51.15
71082;SHT31;58740;50.672;18.690;2022-08-16T11:57:03;28.81;50.86
71082;SHT31;58740;50.672;18.690;2022-08-16T11:59:36;28.72;50.60
71082;SHT31;58740;50.672;18.690;2022-08-16T12:02:07;28.62;50.88
71082;SHT31;58740;50.672;18.690;2022-08-16T12:04:56;28.53;51.06
71082;SHT31;58740;50.672;18.690;2022-08-16T12:07:24;28.45;51.07
71082;SHT31;58740;50.672;18.690;2022-08-16T12:09:52;28.38;51.47
71082;SHT31;58740;50.672;18.690;2022-08-16T12:12:21;28.36;51.73
71082;SHT31;58740;50.672;18.690;2022-08-16T12:14:50;28.39;51.38
71082;SHT31;58740;50.672;18.690;2022-08-16T12:17:30;28.37;51.25
71082;SHT31;58740;50.672;18.690;2022-08-16T12:20:03;28.40;51.01
71082;SHT31;58740;50.672;18.690;2022-08-16T12:22:44;28.42;50.63
71082;SHT31;58740;50.672;18.690;2022-08-16T12:25:14;28.39;50.58
71082;SHT31;58740;50.672;18.690;2022-08-16T12:27:44;28.34;50.63
71082;SHT31;58740;50.672;18.690;2022-08-16T12:30:17;28.28;50.59
71082;SHT31;58740;50.672;18.690;2022-08-16T12:32:59;28.24;50.58
71082;SHT31;58740;50.672;18.690;2022-08-16T12:35:29;28.18;50.47
71082;SHT31;58740;50.672;18.690;2022-08-16T12:38:00;28.14;51.05
71082;SHT31;58740;50.672;18.690;2022-08-16T12:40:48;28.09;51.21
71082;SHT31;58740;50.672;18.690;2022-08-16T12:43:23;28.05;51.49
71082;SHT31;58740;50.672;18.690;2022-08-16T12:45:52;28.01;50.99
71082;SHT31;58740;50.672;18.690;2022-08-16T12:48:27;27.96;50.94
71082;SHT31;58740;50.672;18.690;2022-08-16T12:51:19;27.94;50.70
71082;SHT31;58740;50.672;18.690;2022-08-16T12:54:00;27.90;51.08
71082;SHT31;58740;50.672;18.690;2022-08-16T12:56:31;27.90;50.94
71082;SHT31;58740;50.672;18.690;2022-08-16T12:59:04;27.88;51.20
71082;SHT31;58740;50.672;18.690;2022-08-16T13:01:46;27.87;52.23
71082;SHT31;58740;50.672;18.690;2022-08-16T13:04:25;27.87;52.61
71082;SHT31;58740;50.672;18.690;2022-08-16T13:07:00;27.87;52.24
71082;SHT31;58740;50.672;18.690;2022-08-16T13:09:34;27.85;52.44
71082;SHT31;58740;50.672;18.690;2022-08-16T13:12:09;27.83;52.70
71082;SHT31;58740;50.672;18.690;2022-08-16T13:14:51;27.69;53.39
71082;SHT31;58740;50.672;18.690;2022-08-16T13:17:22;27.47;53.94
71082;SHT31;58740;50.672;18.690;2022-08-16T13:19:56;27.28;54.57
71082;SHT31;58740;50.672;18.690;2022-08-16T13:22:36;27.15;55.17
71082;SHT31;58740;50.672;18.690;2022-08-16T13:25:20;27.01;55.51
71082;SHT31;58740;50.672;18.690;2022-08-16T13:27:52;26.89;55.88
71082;SHT31;58740;50.672;18.690;2022-08-16T13:30:35;26.82;56.25
71082;SHT31;58740;50.672;18.690;2022-08-16T13:33:12;26.76;56.39
71082;SHT31;58740;50.672;18.690;2022-08-16T13:35:59;26.73;56.58
71082;SHT31;58740;50.672;18.690;2022-08-16T13:38:27;26.69;56.60
71082;SHT31;58740;50.672;18.690;2022-08-16T13:41:05;26.66;56.83
71082;SHT31;58740;50.672;18.690;2022-08-16T13:43:36;26.63;56.90
71082;SHT31;58740;50.672;18.690;2022-08-16T13:46:05;26.60;57.46
71082;SHT31;58740;50.672;18.690;2022-08-16T13:48:35;26.56;57.16
71082;SHT31;58740;50.672;18.690;2022-08-16T13:51:12;26.51;56.41
71082;SHT31;58740;50.672;18.690;2022-08-16T13:53:45;26.45;56.25
71082;SHT31;58740;50.672;18.690;2022-08-16T13:56:26;26.41;55.87
71082;SHT31;58740;50.672;18.690;2022-08-16T13:59:06;26.38;55.60
71082;SHT31;58740;50.672;18.690;2022-08-16T14:01:48;26.34;55.63
71082;SHT31;58740;50.672;18.690;2022-08-16T14:04:32;26.32;55.91
71082;SHT31;58740;50.672;18.690;2022-08-16T14:07:07;26.29;55.60
71082;SHT31;58740;50.672;18.690;2022-08-16T14:09:46;26.25;55.60
71082;SHT31;58740;50.672;18.690;2022-08-16T14:12:23;26.25;55.65
71082;SHT31;58740;50.672;18.690;2022-08-16T14:14:57;26.22;55.63
71082;SHT31;58740;50.672;18.690;2022-08-16T14:17:27;26.20;55.76
71082;SHT31;58740;50.672;18.690;2022-08-16T14:20:16;26.18;55.93
71082;SHT31;58740;50.672;18.690;2022-08-16T14:22:46;26.17;56.07
71082;SHT31;58740;50.672;18.690;2022-08-16T14:25:21;26.15;56.28
71082;SHT31;58740;50.672;18.690;2022-08-16T14:27:50;26.15;56.39
71082;SHT31;58740;50.672;18.690;2022-08-16T14:30:20;26.13;56.84
71082;SHT31;58740;50.672;18.690;2022-08-16T14:32:50;26.12;57.22
71082;SHT31;58740;50.672;18.690;2022-08-16T14:35:21;26.10;57.85
71082;SHT31;58740;50.672;18.690;2022-08-16T14:38:03;26.07;58.60
71082;SHT31;58740;50.672;18.690;2022-08-16T14:40:31;26.04;58.66
71082;SHT31;58740;50.672;18.690;2022-08-16T14:43:01;26.02;58.96
71082;SHT31;58740;50.672;18.690;2022-08-16T14:45:33;26.00;59.27
71082;SHT31;58740;50.672;18.690;2022-08-16T14:48:01;25.98;59.39
71082;SHT31;58740;50.672;18.690;2022-08-16T14:50:30;25.97;58.93
71082;SHT31;58740;50.672;18.690;2022-08-16T14:53:02;25.96;58.97
71082;SHT31;58740;50.672;18.690;2022-08-16T14:55:36;25.94;59.34
71082;SHT31;58740;50.672;18.690;2022-08-16T14:58:07;25.92;59.53
71082;SHT31;58740;50.672;18.690;2022-08-16T15:00:46;25.90;59.85
71082;SHT31;58740;50.672;18.690;2022-08-16T15:03:18;25.88;60.15
71082;SHT31;58740;50.672;18.690;2022-08-16T15:05:49;25.87;60.08
71082;SHT31;58740;50.672;18.690;2022-08-16T15:08:20;25.86;60.38
71082;SHT31;58740;50.672;18.690;2022-08-16T15:11:04;25.86;60.20
71082;SHT31;58740;50.672;18.690;2022-08-16T15:13:34;25.86;59.30
71082;SHT31;58740;50.672;18.690;2022-08-16T15:16:02;25.84;59.00
71082;SHT31;58740;50.672;18.690;2022-08-16T15:18:32;25.84;59.47
71082;SHT31;58740;50.672;18.690;2022-08-16T15:21:01;25.82;59.40
71082;SHT31;58740;50.672;18.690;2022-08-16T15:23:34;25.79;59.81
71082;SHT31;58740;50.672;18.690;2022-08-16T15:26:06;25.75;60.36
71082;SHT31;58740;50.672;18.690;2022-08-16T15:28:34;25.72;60.52
71082;SHT31;58740;50.672;18.690;2022-08-16T15:31:05;25.69;60.91
71082;SHT31;58740;50.672;18.690;2022-08-16T15:33:40;25.65;60.85
71082;SHT31;58740;50.672;18.690;2022-08-16T15:36:17;25.62;61.58
71082;SHT31;58740;50.672;18.690;2022-08-16T15:38:48;25.58;62.11
71082;SHT31;58740;50.672;18.690;2022-08-16T15:44:10;25.40;62.43
71082;SHT31;58740;50.672;18.690;2022-08-16T15:46:50;25.25;63.01
71082;SHT31;58740;50.672;18.690;2022-08-16T15:49:25;25.12;63.61
71082;SHT31;58740;50.672;18.690;2022-08-16T15:52:13;24.97;64.09
71082;SHT31;58740;50.672;18.690;2022-08-16T15:54:47;24.88;64.47
71082;SHT31;58740;50.672;18.690;2022-08-16T15:57:23;24.85;64.92
71082;SHT31;58740;50.672;18.690;2022-08-16T16:00:04;24.81;65.55
71082;SHT31;58740;50.672;18.690;2022-08-16T16:02:42;24.79;66.19
71082;SHT31;58740;50.672;18.690;2022-08-16T16:05:11;24.73;66.59
71082;SHT31;58740;50.672;18.690;2022-08-16T16:07:40;24.70;67.03
71082;SHT31;58740;50.672;18.690;2022-08-16T16:10:28;24.66;67.65
71082;SHT31;58740;50.672;18.690;2022-08-16T16:12:58;24.62;68.12
71082;SHT31;58740;50.672;18.690;2022-08-16T16:15:44;24.59;68.44
71082;SHT31;58740;50.672;18.690;2022-08-16T16:18:17;24.53;68.72